sensor_id;sensor_type;location;lat;lon;timestamp;P1;durP1;ratioP1;P2;durP2;ratioP2
29196;SDS011;62796;42.654;23.316;2023-03-31T00:00:08;23.77;;;12.25;;
29196;SDS011;62796;42.654;23.316;2023-03-31T00:02:36;28.27;;;13.48;;
29196;SDS011;62796;42.654;23.316;2023-03-31T00:05:06;27.83;;;14.63;;
29196;SDS011;62796;42.654;23.316;2023-03-31T00:07:32;31.05;;;14.77;;
29196;SDS011;62796;42.654;23.316;2023-03-31T00:09:57;32.78;;;14.93;;
29196;SDS011;62796;42.654;23.316;2023-03-31T00:12:26;32.70;;;15.55;;
29196;SDS011;62796;42.654;23.316;2023-03-31T00:14:51;30.15;;;16.08;;
29196;SDS011;62796;42.654;23.316;2023-03-31T00:17:17;31.73;;;15.30;;
29196;SDS011;62796;42.654;23.316;2023-03-31T00:19:42;29.83;;;13.90;;
29196;SDS011;62796;42.654;23.316;2023-03-31T00:22:08;35.78;;;17.85;;
29196;SDS011;62796;42.654;23.316;2023-03-31T00:24:34;41.53;;;19.05;;
29196;SDS011;62796;42.654;23.316;2023-03-31T00:27:03;39.78;;;17.88;;
29196;SDS011;62796;42.654;23.316;2023-03-31T00:29:29;34.20;;;16.35;;
29196;SDS011;62796;42.654;23.316;2023-03-31T00:31:55;37.58;;;17.05;;
29196;SDS011;62796;42.654;23.316;2023-03-31T00:34:20;25.85;;;13.27;;
29196;SDS011;62796;42.654;23.316;2023-03-31T00:36:46;23.60;;;11.55;;
29196;SDS011;62796;42.654;23.316;2023-03-31T00:39:13;24.20;;;13.65;;
29196;SDS011;62796;42.654;23.316;2023-03-31T00:41:40;27.45;;;14.10;;
29196;SDS011;62796;42.654;23.316;2023-03-31T00:46:51;24.30;;;13.70;;
29196;SDS011;62796;42.654;23.316;2023-03-31T00:49:34;36.20;;;13.95;;
29196;SDS011;62796;42.654;23.316;2023-03-31T00:54:33;26.38;;;14.07;;
29196;SDS011;62796;42.654;23.316;2023-03-31T00:57:00;32.70;;;13.68;;
29196;SDS011;62796;42.654;23.316;2023-03-31T00:59:30;21.73;;;13.13;;
29196;SDS011;62796;42.654;23.316;2023-03-31T01:02:02;24.50;;;12.90;;
29196;SDS011;62796;42.654;23.316;2023-03-31T01:04:36;28.60;;;13.30;;
29196;SDS011;62796;42.654;23.316;2023-03-31T01:09:50;27.05;;;12.82;;
29196;SDS011;62796;42.654;23.316;2023-03-31T01:12:21;25.88;;;13.45;;
29196;SDS011;62796;42.654;23.316;2023-03-31T01:14:48;40.13;;;14.52;;
29196;SDS011;62796;42.654;23.316;2023-03-31T01:17:15;28.35;;;12.13;;
29196;SDS011;62796;42.654;23.316;2023-03-31T01:22:40;39.17;;;15.18;;
29196;SDS011;62796;42.654;23.316;2023-03-31T01:36:14;45.03;;;17.05;;
29196;SDS011;62796;42.654;23.316;2023-03-31T01:47:45;34.63;;;14.73;;
29196;SDS011;62796;42.654;23.316;2023-03-31T01:49:56;34.22;;;14.15;;
29196;SDS011;62796;42.654;23.316;2023-03-31T02:00:26;33.70;;;12.75;;
29196;SDS011;62796;42.654;23.316;2023-03-31T02:03:04;35.08;;;14.75;;
29196;SDS011;62796;42.654;23.316;2023-03-31T02:05:43;33.65;;;13.82;;
29196;SDS011;62796;42.654;23.316;2023-03-31T02:08:24;37.00;;;14.23;;
29196;SDS011;62796;42.654;23.316;2023-03-31T02:10:54;29.75;;;13.63;;
29196;SDS011;62796;42.654;23.316;2023-03-31T02:13:21;31.48;;;13.27;;
29196;SDS011;62796;42.654;23.316;2023-03-31T02:15:52;31.67;;;13.45;;
29196;SDS011;62796;42.654;23.316;2023-03-31T02:18:22;33.30;;;13.35;;
29196;SDS011;62796;42.654;23.316;2023-03-31T02:20:51;28.70;;;12.57;;
29196;SDS011;62796;42.654;23.316;2023-03-31T02:23:22;35.20;;;13.13;;
29196;SDS011;62796;42.654;23.316;2023-03-31T02:26:03;33.15;;;14.13;;
29196;SDS011;62796;42.654;23.316;2023-03-31T02:28:29;29.58;;;12.27;;
29196;SDS011;62796;42.654;23.316;2023-03-31T02:31:20;22.35;;;10.10;;
29196;SDS011;62796;42.654;23.316;2023-03-31T02:33:46;22.17;;;9.43;;
29196;SDS011;62796;42.654;23.316;2023-03-31T02:36:13;25.50;;;12.98;;
29196;SDS011;62796;42.654;23.316;2023-03-31T02:38:41;21.88;;;10.70;;
29196;SDS011;62796;42.654;23.316;2023-03-31T02:41:10;20.05;;;9.73;;
29196;SDS011;62796;42.654;23.316;2023-03-31T02:43:35;12.23;;;6.38;;
29196;SDS011;62796;42.654;23.316;2023-03-31T02:46:01;13.45;;;5.78;;
29196;SDS011;62796;42.654;23.316;2023-03-31T02:48:31;11.10;;;5.43;;
29196;SDS011;62796;42.654;23.316;2023-03-31T02:56:24;5.47;;;2.53;;
29196;SDS011;62796;42.654;23.316;2023-03-31T03:02:36;5.43;;;2.40;;
29196;SDS011;62796;42.654;23.316;2023-03-31T03:13:05;3.55;;;2.00;;
29196;SDS011;62796;42.654;23.316;2023-03-31T03:15:47;4.75;;;2.60;;
29196;SDS011;62796;42.654;23.316;2023-03-31T03:18:19;5.35;;;2.45;;
29196;SDS011;62796;42.654;23.316;2023-03-31T03:20:45;5.43;;;2.40;;
29196;SDS011;62796;42.654;23.316;2023-03-31T03:23:13;5.78;;;2.10;;
29196;SDS011;62796;42.654;23.316;2023-03-31T03:25:40;4.97;;;2.38;;
29196;SDS011;62796;42.654;23.316;2023-03-31T03:28:05;5.05;;;2.20;;
29196;SDS011;62796;42.654;23.316;2023-03-31T03:30:31;7.50;;;2.47;;
29196;SDS011;62796;42.654;23.316;2023-03-31T03:32:56;6.13;;;2.47;;
29196;SDS011;62796;42.654;23.316;2023-03-31T03:35:22;5.38;;;2.28;;
29196;SDS011;62796;42.654;23.316;2023-03-31T03:37:48;4.38;;;2.55;;
29196;SDS011;62796;42.654;23.316;2023-03-31T03:40:14;5.63;;;2.55;;
29196;SDS011;62796;42.654;23.316;2023-03-31T03:42:39;8.13;;;2.72;;
29196;SDS011;62796;42.654;23.316;2023-03-31T03:45:05;7.78;;;2.83;;
29196;SDS011;62796;42.654;23.316;2023-03-31T03:47:31;5.38;;;2.95;;
29196;SDS011;62796;42.654;23.316;2023-03-31T03:49:57;7.90;;;2.83;;
29196;SDS011;62796;42.654;23.316;2023-03-31T03:52:22;7.95;;;3.15;;
29196;SDS011;62796;42.654;23.316;2023-03-31T03:54:48;6.53;;;3.17;;
29196;SDS011;62796;42.654;23.316;2023-03-31T03:57:13;5.20;;;2.85;;
29196;SDS011;62796;42.654;23.316;2023-03-31T03:59:38;6.47;;;3.00;;
29196;SDS011;62796;42.654;23.316;2023-03-31T04:02:04;8.52;;;2.70;;
29196;SDS011;62796;42.654;23.316;2023-03-31T04:04:30;8.63;;;3.72;;
29196;SDS011;62796;42.654;23.316;2023-03-31T04:06:55;7.28;;;3.42;;
29196;SDS011;62796;42.654;23.316;2023-03-31T04:09:20;7.53;;;3.60;;
29196;SDS011;62796;42.654;23.316;2023-03-31T04:11:46;7.55;;;4.57;;
29196;SDS011;62796;42.654;23.316;2023-03-31T04:14:11;10.25;;;5.60;;
29196;SDS011;62796;42.654;23.316;2023-03-31T04:16:37;11.55;;;5.50;;
29196;SDS011;62796;42.654;23.316;2023-03-31T04:19:04;11.93;;;5.47;;
29196;SDS011;62796;42.654;23.316;2023-03-31T04:21:30;10.68;;;5.30;;
29196;SDS011;62796;42.654;23.316;2023-03-31T04:23:59;10.65;;;5.72;;
29196;SDS011;62796;42.654;23.316;2023-03-31T04:26:32;10.63;;;5.88;;
29196;SDS011;62796;42.654;23.316;2023-03-31T04:29:08;9.93;;;6.00;;
29196;SDS011;62796;42.654;23.316;2023-03-31T04:31:36;14.18;;;5.90;;
29196;SDS011;62796;42.654;23.316;2023-03-31T04:34:03;12.57;;;7.35;;
29196;SDS011;62796;42.654;23.316;2023-03-31T04:36:31;15.32;;;7.30;;
29196;SDS011;62796;42.654;23.316;2023-03-31T04:38:58;12.80;;;6.32;;
29196;SDS011;62796;42.654;23.316;2023-03-31T04:41:25;14.00;;;6.68;;
29196;SDS011;62796;42.654;23.316;2023-03-31T04:43:54;12.57;;;6.47;;
29196;SDS011;62796;42.654;23.316;2023-03-31T04:46:20;13.95;;;7.15;;
29196;SDS011;62796;42.654;23.316;2023-03-31T04:48:45;12.68;;;5.65;;
29196;SDS011;62796;42.654;23.316;2023-03-31T04:51:11;11.52;;;6.25;;
29196;SDS011;62796;42.654;23.316;2023-03-31T04:53:39;12.85;;;6.15;;
29196;SDS011;62796;42.654;23.316;2023-03-31T04:56:05;15.00;;;5.95;;
29196;SDS011;62796;42.654;23.316;2023-03-31T04:58:31;13.02;;;6.60;;
29196;SDS011;62796;42.654;23.316;2023-03-31T05:00:57;13.50;;;7.20;;
29196;SDS011;62796;42.654;23.316;2023-03-31T05:03:23;15.18;;;7.60;;
29196;SDS011;62796;42.654;23.316;2023-03-31T05:05:48;16.63;;;7.72;;
29196;SDS011;62796;42.654;23.316;2023-03-31T05:08:14;15.07;;;7.40;;
29196;SDS011;62796;42.654;23.316;2023-03-31T05:10:39;15.77;;;9.40;;
29196;SDS011;62796;42.654;23.316;2023-03-31T05:13:05;14.73;;;8.05;;
29196;SDS011;62796;42.654;23.316;2023-03-31T05:15:30;13.98;;;7.82;;
29196;SDS011;62796;42.654;23.316;2023-03-31T05:17:56;16.25;;;7.60;;
29196;SDS011;62796;42.654;23.316;2023-03-31T05:20:22;13.93;;;7.25;;
29196;SDS011;62796;42.654;23.316;2023-03-31T05:22:48;12.90;;;7.05;;
29196;SDS011;62796;42.654;23.316;2023-03-31T05:25:14;18.70;;;7.65;;
29196;SDS011;62796;42.654;23.316;2023-03-31T05:27:42;11.60;;;6.93;;
29196;SDS011;62796;42.654;23.316;2023-03-31T05:30:10;16.88;;;8.20;;
29196;SDS011;62796;42.654;23.316;2023-03-31T05:32:36;18.88;;;7.97;;
29196;SDS011;62796;42.654;23.316;2023-03-31T05:35:01;14.60;;;7.63;;
29196;SDS011;62796;42.654;23.316;2023-03-31T05:37:27;16.75;;;7.28;;
29196;SDS011;62796;42.654;23.316;2023-03-31T05:39:52;16.83;;;7.20;;
29196;SDS011;62796;42.654;23.316;2023-03-31T05:42:18;13.90;;;8.13;;
29196;SDS011;62796;42.654;23.316;2023-03-31T05:44:43;14.15;;;8.30;;
29196;SDS011;62796;42.654;23.316;2023-03-31T05:47:09;16.95;;;8.13;;
29196;SDS011;62796;42.654;23.316;2023-03-31T05:49:35;16.70;;;8.82;;
29196;SDS011;62796;42.654;23.316;2023-03-31T05:52:02;14.25;;;8.50;;
29196;SDS011;62796;42.654;23.316;2023-03-31T05:54:29;17.58;;;8.40;;
29196;SDS011;62796;42.654;23.316;2023-03-31T05:56:54;21.10;;;8.55;;
29196;SDS011;62796;42.654;23.316;2023-03-31T05:59:20;16.80;;;8.40;;
29196;SDS011;62796;42.654;23.316;2023-03-31T06:01:46;19.40;;;8.88;;
29196;SDS011;62796;42.654;23.316;2023-03-31T06:04:11;15.82;;;8.40;;
29196;SDS011;62796;42.654;23.316;2023-03-31T06:06:36;21.60;;;10.23;;
29196;SDS011;62796;42.654;23.316;2023-03-31T06:09:02;17.63;;;9.20;;
29196;SDS011;62796;42.654;23.316;2023-03-31T06:11:29;15.65;;;8.60;;
29196;SDS011;62796;42.654;23.316;2023-03-31T06:13:55;15.00;;;7.97;;
29196;SDS011;62796;42.654;23.316;2023-03-31T06:16:20;19.48;;;8.95;;
29196;SDS011;62796;42.654;23.316;2023-03-31T06:18:46;15.40;;;8.55;;
29196;SDS011;62796;42.654;23.316;2023-03-31T06:21:12;14.80;;;8.23;;
29196;SDS011;62796;42.654;23.316;2023-03-31T06:23:40;17.95;;;8.77;;
29196;SDS011;62796;42.654;23.316;2023-03-31T06:26:10;21.13;;;9.35;;
29196;SDS011;62796;42.654;23.316;2023-03-31T06:28:37;14.55;;;8.88;;
29196;SDS011;62796;42.654;23.316;2023-03-31T06:31:04;15.73;;;9.48;;
29196;SDS011;62796;42.654;23.316;2023-03-31T06:33:31;25.25;;;10.50;;
29196;SDS011;62796;42.654;23.316;2023-03-31T06:35:57;24.67;;;10.63;;
29196;SDS011;62796;42.654;23.316;2023-03-31T06:38:25;21.05;;;10.30;;
29196;SDS011;62796;42.654;23.316;2023-03-31T06:40:51;20.27;;;10.35;;
29196;SDS011;62796;42.654;23.316;2023-03-31T06:43:17;23.73;;;10.85;;
29196;SDS011;62796;42.654;23.316;2023-03-31T06:45:42;25.65;;;11.70;;
29196;SDS011;62796;42.654;23.316;2023-03-31T06:48:08;22.85;;;11.30;;
29196;SDS011;62796;42.654;23.316;2023-03-31T06:50:36;23.85;;;11.05;;
29196;SDS011;62796;42.654;23.316;2023-03-31T06:53:02;28.63;;;12.05;;
29196;SDS011;62796;42.654;23.316;2023-03-31T06:55:28;23.20;;;11.98;;
29196;SDS011;62796;42.654;23.316;2023-03-31T06:57:53;27.55;;;11.35;;
29196;SDS011;62796;42.654;23.316;2023-03-31T07:00:18;23.75;;;11.32;;
29196;SDS011;62796;42.654;23.316;2023-03-31T07:02:44;23.67;;;10.65;;
29196;SDS011;62796;42.654;23.316;2023-03-31T07:05:09;22.38;;;11.60;;
29196;SDS011;62796;42.654;23.316;2023-03-31T07:07:35;31.77;;;11.45;;
29196;SDS011;62796;42.654;23.316;2023-03-31T07:10:00;35.30;;;11.85;;
29196;SDS011;62796;42.654;23.316;2023-03-31T07:12:26;24.27;;;9.50;;
29196;SDS011;62796;42.654;23.316;2023-03-31T07:14:51;17.35;;;9.57;;
29196;SDS011;62796;42.654;23.316;2023-03-31T07:17:16;19.42;;;9.57;;
29196;SDS011;62796;42.654;23.316;2023-03-31T07:19:42;22.33;;;8.98;;
29196;SDS011;62796;42.654;23.316;2023-03-31T07:22:11;20.60;;;10.07;;
29196;SDS011;62796;42.654;23.316;2023-03-31T07:24:37;18.73;;;7.93;;
29196;SDS011;62796;42.654;23.316;2023-03-31T07:27:03;32.15;;;7.80;;
29196;SDS011;62796;42.654;23.316;2023-03-31T07:29:28;20.30;;;5.07;;
29196;SDS011;62796;42.654;23.316;2023-03-31T07:31:54;18.38;;;4.88;;
29196;SDS011;62796;42.654;23.316;2023-03-31T07:34:19;14.50;;;5.07;;
29196;SDS011;62796;42.654;23.316;2023-03-31T07:36:45;12.27;;;4.88;;
29196;SDS011;62796;42.654;23.316;2023-03-31T07:39:10;16.00;;;5.85;;
29196;SDS011;62796;42.654;23.316;2023-03-31T07:41:36;18.63;;;7.20;;
29196;SDS011;62796;42.654;23.316;2023-03-31T07:44:01;32.53;;;7.78;;
29196;SDS011;62796;42.654;23.316;2023-03-31T07:46:27;16.80;;;6.70;;
29196;SDS011;62796;42.654;23.316;2023-03-31T07:48:53;18.40;;;6.00;;
29196;SDS011;62796;42.654;23.316;2023-03-31T07:51:21;14.52;;;6.03;;
29196;SDS011;62796;42.654;23.316;2023-03-31T07:53:50;15.45;;;6.60;;
29196;SDS011;62796;42.654;23.316;2023-03-31T07:56:20;11.20;;;5.65;;
29196;SDS011;62796;42.654;23.316;2023-03-31T07:58:46;13.55;;;6.30;;
29196;SDS011;62796;42.654;23.316;2023-03-31T08:01:16;10.57;;;5.60;;
29196;SDS011;62796;42.654;23.316;2023-03-31T08:03:43;15.25;;;5.75;;
29196;SDS011;62796;42.654;23.316;2023-03-31T08:06:19;16.13;;;5.32;;
29196;SDS011;62796;42.654;23.316;2023-03-31T08:08:47;19.70;;;5.70;;
29196;SDS011;62796;42.654;23.316;2023-03-31T08:11:13;15.60;;;4.18;;
29196;SDS011;62796;42.654;23.316;2023-03-31T08:13:39;15.82;;;4.55;;
29196;SDS011;62796;42.654;23.316;2023-03-31T08:16:04;13.30;;;4.82;;
29196;SDS011;62796;42.654;23.316;2023-03-31T08:18:30;28.27;;;5.05;;
29196;SDS011;62796;42.654;23.316;2023-03-31T08:20:55;19.05;;;4.75;;
29196;SDS011;62796;42.654;23.316;2023-03-31T08:23:21;26.17;;;5.63;;
29196;SDS011;62796;42.654;23.316;2023-03-31T08:25:46;30.27;;;6.82;;
29196;SDS011;62796;42.654;23.316;2023-03-31T08:28:12;23.27;;;5.07;;
29196;SDS011;62796;42.654;23.316;2023-03-31T08:30:41;21.17;;;5.07;;
29196;SDS011;62796;42.654;23.316;2023-03-31T08:33:07;26.73;;;7.53;;
29196;SDS011;62796;42.654;23.316;2023-03-31T08:35:35;16.50;;;4.72;;
29196;SDS011;62796;42.654;23.316;2023-03-31T08:38:01;10.85;;;3.35;;
29196;SDS011;62796;42.654;23.316;2023-03-31T08:40:27;13.82;;;3.47;;
29196;SDS011;62796;42.654;23.316;2023-03-31T08:43:07;40.05;;;5.97;;
29196;SDS011;62796;42.654;23.316;2023-03-31T08:50:56;17.88;;;4.03;;
29196;SDS011;62796;42.654;23.316;2023-03-31T08:53:49;16.35;;;4.28;;
29196;SDS011;62796;42.654;23.316;2023-03-31T08:56:21;12.88;;;3.47;;
29196;SDS011;62796;42.654;23.316;2023-03-31T08:58:50;11.73;;;3.60;;
29196;SDS011;62796;42.654;23.316;2023-03-31T09:09:30;14.50;;;3.53;;
29196;SDS011;62796;42.654;23.316;2023-03-31T09:12:19;12.55;;;2.85;;
29196;SDS011;62796;42.654;23.316;2023-03-31T09:17:26;8.90;;;3.15;;
29196;SDS011;62796;42.654;23.316;2023-03-31T09:20:16;8.60;;;2.97;;
29196;SDS011;62796;42.654;23.316;2023-03-31T09:22:51;12.68;;;2.78;;
29196;SDS011;62796;42.654;23.316;2023-03-31T09:25:29;9.68;;;2.40;;
29196;SDS011;62796;42.654;23.316;2023-03-31T09:27:58;16.83;;;3.20;;
29196;SDS011;62796;42.654;23.316;2023-03-31T09:33:09;12.77;;;2.70;;
29196;SDS011;62796;42.654;23.316;2023-03-31T09:35:40;11.63;;;2.78;;
29196;SDS011;62796;42.654;23.316;2023-03-31T09:38:07;11.77;;;2.60;;
29196;SDS011;62796;42.654;23.316;2023-03-31T09:40:35;9.60;;;2.70;;
29196;SDS011;62796;42.654;23.316;2023-03-31T09:45:31;8.95;;;2.60;;
29196;SDS011;62796;42.654;23.316;2023-03-31T09:48:01;9.38;;;2.33;;
29196;SDS011;62796;42.654;23.316;2023-03-31T09:50:32;8.07;;;2.75;;
29196;SDS011;62796;42.654;23.316;2023-03-31T09:53:06;10.20;;;3.08;;
29196;SDS011;62796;42.654;23.316;2023-03-31T09:55:43;7.95;;;2.60;;
29196;SDS011;62796;42.654;23.316;2023-03-31T09:58:12;6.75;;;3.03;;
29196;SDS011;62796;42.654;23.316;2023-03-31T10:00:54;15.18;;;2.83;;
29196;SDS011;62796;42.654;23.316;2023-03-31T10:03:23;10.30;;;2.72;;
29196;SDS011;62796;42.654;23.316;2023-03-31T10:05:50;10.85;;;3.40;;
29196;SDS011;62796;42.654;23.316;2023-03-31T10:08:23;6.80;;;3.00;;
29196;SDS011;62796;42.654;23.316;2023-03-31T10:10:55;7.70;;;3.08;;
29196;SDS011;62796;42.654;23.316;2023-03-31T10:13:48;11.75;;;3.28;;
29196;SDS011;62796;42.654;23.316;2023-03-31T10:16:30;8.65;;;2.47;;
29196;SDS011;62796;42.654;23.316;2023-03-31T10:21:58;7.80;;;2.83;;
29196;SDS011;62796;42.654;23.316;2023-03-31T10:24:50;11.45;;;3.42;;
29196;SDS011;62796;42.654;23.316;2023-03-31T10:29:41;13.02;;;3.08;;
29196;SDS011;62796;42.654;23.316;2023-03-31T10:32:14;12.95;;;2.78;;
29196;SDS011;62796;42.654;23.316;2023-03-31T10:37:07;9.85;;;2.63;;
29196;SDS011;62796;42.654;23.316;2023-03-31T10:39:37;10.10;;;3.28;;
29196;SDS011;62796;42.654;23.316;2023-03-31T10:42:03;7.93;;;2.45;;
29196;SDS011;62796;42.654;23.316;2023-03-31T10:49:39;8.77;;;3.03;;
29196;SDS011;62796;42.654;23.316;2023-03-31T10:52:20;13.02;;;3.10;;
29196;SDS011;62796;42.654;23.316;2023-03-31T10:54:48;7.35;;;2.90;;
29196;SDS011;62796;42.654;23.316;2023-03-31T10:57:20;16.98;;;2.95;;
29196;SDS011;62796;42.654;23.316;2023-03-31T11:19:10;9.45;;;2.97;;
29196;SDS011;62796;42.654;23.316;2023-03-31T11:40:26;5.60;;;2.28;;
29196;SDS011;62796;42.654;23.316;2023-03-31T11:51:33;20.70;;;3.97;;
29196;SDS011;62796;42.654;23.316;2023-03-31T11:54:15;7.88;;;2.95;;
29196;SDS011;62796;42.654;23.316;2023-03-31T11:56:44;22.90;;;3.90;;
29196;SDS011;62796;42.654;23.316;2023-03-31T11:59:12;14.38;;;3.42;;
29196;SDS011;62796;42.654;23.316;2023-03-31T12:01:43;17.88;;;4.43;;
29196;SDS011;62796;42.654;23.316;2023-03-31T12:04:38;15.23;;;4.35;;
29196;SDS011;62796;42.654;23.316;2023-03-31T12:15:43;8.35;;;3.38;;
29196;SDS011;62796;42.654;23.316;2023-03-31T12:18:17;14.27;;;4.32;;
29196;SDS011;62796;42.654;23.316;2023-03-31T12:20:51;13.43;;;3.78;;
29196;SDS011;62796;42.654;23.316;2023-03-31T12:23:21;20.13;;;4.33;;
29196;SDS011;62796;42.654;23.316;2023-03-31T12:25:54;14.98;;;3.17;;
29196;SDS011;62796;42.654;23.316;2023-03-31T12:28:40;9.15;;;2.80;;
29196;SDS011;62796;42.654;23.316;2023-03-31T12:31:10;16.45;;;3.78;;
29196;SDS011;62796;42.654;23.316;2023-03-31T12:33:45;17.77;;;3.72;;
29196;SDS011;62796;42.654;23.316;2023-03-31T12:36:38;10.70;;;3.08;;
29196;SDS011;62796;42.654;23.316;2023-03-31T12:45:05;14.38;;;3.67;;
29196;SDS011;62796;42.654;23.316;2023-03-31T12:50:30;6.70;;;2.53;;
29196;SDS011;62796;42.654;23.316;2023-03-31T12:55:55;13.57;;;3.22;;
29196;SDS011;62796;42.654;23.316;2023-03-31T13:06:00;9.98;;;3.25;;
29196;SDS011;62796;42.654;23.316;2023-03-31T13:11:43;5.03;;;2.58;;
29196;SDS011;62796;42.654;23.316;2023-03-31T13:16:42;9.73;;;2.72;;
29196;SDS011;62796;42.654;23.316;2023-03-31T13:19:09;8.13;;;2.67;;
29196;SDS011;62796;42.654;23.316;2023-03-31T13:22:00;9.25;;;2.80;;
29196;SDS011;62796;42.654;23.316;2023-03-31T13:24:27;9.23;;;2.45;;
29196;SDS011;62796;42.654;23.316;2023-03-31T13:26:55;15.45;;;3.78;;
29196;SDS011;62796;42.654;23.316;2023-03-31T13:29:39;17.33;;;3.40;;
29196;SDS011;62796;42.654;23.316;2023-03-31T13:32:14;14.40;;;2.92;;
29196;SDS011;62796;42.654;23.316;2023-03-31T13:43:00;9.88;;;3.05;;
29196;SDS011;62796;42.654;23.316;2023-03-31T13:53:47;10.80;;;3.08;;
29196;SDS011;62796;42.654;23.316;2023-03-31T14:13:04;8.73;;;2.70;;
29196;SDS011;62796;42.654;23.316;2023-03-31T14:18:20;12.68;;;3.17;;
29196;SDS011;62796;42.654;23.316;2023-03-31T14:26:36;8.60;;;2.85;;
29196;SDS011;62796;42.654;23.316;2023-03-31T14:38:11;10.95;;;3.03;;
29196;SDS011;62796;42.654;23.316;2023-03-31T14:40:51;12.10;;;2.60;;
29196;SDS011;62796;42.654;23.316;2023-03-31T14:43:21;10.70;;;2.83;;
29196;SDS011;62796;42.654;23.316;2023-03-31T14:46:05;9.02;;;2.58;;
29196;SDS011;62796;42.654;23.316;2023-03-31T14:48:33;9.52;;;2.83;;
29196;SDS011;62796;42.654;23.316;2023-03-31T14:51:07;11.13;;;2.63;;
29196;SDS011;62796;42.654;23.316;2023-03-31T14:53:34;9.93;;;2.85;;
29196;SDS011;62796;42.654;23.316;2023-03-31T14:56:07;9.43;;;2.95;;
29196;SDS011;62796;42.654;23.316;2023-03-31T14:58:37;10.25;;;2.60;;
29196;SDS011;62796;42.654;23.316;2023-03-31T15:01:07;8.93;;;3.03;;
29196;SDS011;62796;42.654;23.316;2023-03-31T15:03:37;5.85;;;2.55;;
29196;SDS011;62796;42.654;23.316;2023-03-31T15:06:08;10.15;;;2.67;;
29196;SDS011;62796;42.654;23.316;2023-03-31T15:08:35;7.10;;;2.97;;
29196;SDS011;62796;42.654;23.316;2023-03-31T15:11:07;11.57;;;3.22;;
29196;SDS011;62796;42.654;23.316;2023-03-31T15:13:47;7.18;;;3.20;;
29196;SDS011;62796;42.654;23.316;2023-03-31T15:18:46;10.82;;;3.35;;
29196;SDS011;62796;42.654;23.316;2023-03-31T15:21:22;8.88;;;3.90;;
29196;SDS011;62796;42.654;23.316;2023-03-31T15:23:55;10.75;;;3.55;;
29196;SDS011;62796;42.654;23.316;2023-03-31T15:26:29;10.10;;;3.15;;
29196;SDS011;62796;42.654;23.316;2023-03-31T15:29:06;9.30;;;3.28;;
29196;SDS011;62796;42.654;23.316;2023-03-31T15:31:36;9.07;;;3.20;;
29196;SDS011;62796;42.654;23.316;2023-03-31T15:34:12;8.15;;;3.20;;
29196;SDS011;62796;42.654;23.316;2023-03-31T15:36:40;10.90;;;3.30;;
29196;SDS011;62796;42.654;23.316;2023-03-31T15:39:06;7.75;;;3.08;;
29196;SDS011;62796;42.654;23.316;2023-03-31T15:41:31;10.38;;;3.30;;
29196;SDS011;62796;42.654;23.316;2023-03-31T15:44:06;11.60;;;2.97;;
29196;SDS011;62796;42.654;23.316;2023-03-31T15:50:24;11.55;;;3.30;;
29196;SDS011;62796;42.654;23.316;2023-03-31T15:55:47;11.57;;;3.10;;
29196;SDS011;62796;42.654;23.316;2023-03-31T15:57:51;8.13;;;3.33;;
29196;SDS011;62796;42.654;23.316;2023-03-31T16:00:39;6.75;;;2.88;;
29196;SDS011;62796;42.654;23.316;2023-03-31T16:03:18;10.57;;;3.25;;
29196;SDS011;62796;42.654;23.316;2023-03-31T16:05:59;8.05;;;3.00;;
29196;SDS011;62796;42.654;23.316;2023-03-31T16:08:37;8.18;;;2.72;;
29196;SDS011;62796;42.654;23.316;2023-03-31T16:13:39;8.63;;;3.45;;
29196;SDS011;62796;42.654;23.316;2023-03-31T16:16:09;6.57;;;3.22;;
29196;SDS011;62796;42.654;23.316;2023-03-31T16:19:00;9.32;;;3.22;;
29196;SDS011;62796;42.654;23.316;2023-03-31T16:21:41;11.82;;;3.38;;
29196;SDS011;62796;42.654;23.316;2023-03-31T16:24:11;11.05;;;3.35;;
29196;SDS011;62796;42.654;23.316;2023-03-31T16:26:37;9.30;;;3.20;;
29196;SDS011;62796;42.654;23.316;2023-03-31T16:29:03;24.60;;;11.45;;
29196;SDS011;62796;42.654;23.316;2023-03-31T16:31:31;18.48;;;9.82;;
29196;SDS011;62796;42.654;23.316;2023-03-31T16:34:03;17.85;;;7.55;;
29196;SDS011;62796;42.654;23.316;2023-03-31T16:36:30;19.23;;;8.18;;
29196;SDS011;62796;42.654;23.316;2023-03-31T16:38:55;15.43;;;8.15;;
29196;SDS011;62796;42.654;23.316;2023-03-31T16:41:23;23.95;;;8.40;;
29196;SDS011;62796;42.654;23.316;2023-03-31T16:43:48;30.40;;;11.70;;
29196;SDS011;62796;42.654;23.316;2023-03-31T16:46:16;32.20;;;12.15;;
29196;SDS011;62796;42.654;23.316;2023-03-31T16:48:42;22.75;;;12.30;;
29196;SDS011;62796;42.654;23.316;2023-03-31T16:51:08;24.20;;;10.48;;
29196;SDS011;62796;42.654;23.316;2023-03-31T16:53:34;20.50;;;9.20;;
29196;SDS011;62796;42.654;23.316;2023-03-31T16:56:01;28.20;;;12.23;;
29196;SDS011;62796;42.654;23.316;2023-03-31T16:58:28;32.88;;;14.10;;
29196;SDS011;62796;42.654;23.316;2023-03-31T17:00:54;33.67;;;16.25;;
29196;SDS011;62796;42.654;23.316;2023-03-31T17:03:21;28.67;;;17.35;;
29196;SDS011;62796;42.654;23.316;2023-03-31T17:05:47;45.63;;;22.77;;
29196;SDS011;62796;42.654;23.316;2023-03-31T17:08:17;40.72;;;19.92;;
29196;SDS011;62796;42.654;23.316;2023-03-31T17:10:49;34.58;;;17.10;;
29196;SDS011;62796;42.654;23.316;2023-03-31T17:13:19;36.75;;;19.05;;
29196;SDS011;62796;42.654;23.316;2023-03-31T17:15:45;37.88;;;18.50;;
29196;SDS011;62796;42.654;23.316;2023-03-31T17:18:11;39.53;;;17.80;;
29196;SDS011;62796;42.654;23.316;2023-03-31T17:20:37;38.83;;;16.98;;
29196;SDS011;62796;42.654;23.316;2023-03-31T17:23:03;36.25;;;14.43;;
29196;SDS011;62796;42.654;23.316;2023-03-31T17:25:28;23.67;;;11.32;;
29196;SDS011;62796;42.654;23.316;2023-03-31T17:27:54;23.20;;;11.27;;
29196;SDS011;62796;42.654;23.316;2023-03-31T17:30:20;25.70;;;12.68;;
29196;SDS011;62796;42.654;23.316;2023-03-31T17:32:46;26.58;;;12.18;;
29196;SDS011;62796;42.654;23.316;2023-03-31T17:35:12;20.23;;;9.75;;
29196;SDS011;62796;42.654;23.316;2023-03-31T17:37:44;20.70;;;9.65;;
29196;SDS011;62796;42.654;23.316;2023-03-31T17:40:10;22.88;;;10.32;;
29196;SDS011;62796;42.654;23.316;2023-03-31T17:42:36;26.23;;;10.70;;
29196;SDS011;62796;42.654;23.316;2023-03-31T17:45:03;20.83;;;11.77;;
29196;SDS011;62796;42.654;23.316;2023-03-31T17:47:29;16.13;;;9.07;;
29196;SDS011;62796;42.654;23.316;2023-03-31T17:49:56;19.85;;;9.30;;
29196;SDS011;62796;42.654;23.316;2023-03-31T17:52:22;19.95;;;9.75;;
29196;SDS011;62796;42.654;23.316;2023-03-31T17:54:49;25.35;;;10.35;;
29196;SDS011;62796;42.654;23.316;2023-03-31T17:57:15;36.75;;;11.35;;
29196;SDS011;62796;42.654;23.316;2023-03-31T17:59:41;30.42;;;11.95;;
29196;SDS011;62796;42.654;23.316;2023-03-31T18:02:08;30.90;;;12.02;;
29196;SDS011;62796;42.654;23.316;2023-03-31T18:04:36;33.28;;;11.65;;
29196;SDS011;62796;42.654;23.316;2023-03-31T18:07:02;32.17;;;12.02;;
29196;SDS011;62796;42.654;23.316;2023-03-31T18:09:28;37.58;;;11.38;;
29196;SDS011;62796;42.654;23.316;2023-03-31T18:11:53;25.30;;;11.50;;
29196;SDS011;62796;42.654;23.316;2023-03-31T18:14:19;30.30;;;10.77;;
29196;SDS011;62796;42.654;23.316;2023-03-31T18:16:45;39.15;;;12.95;;
29196;SDS011;62796;42.654;23.316;2023-03-31T18:19:10;37.75;;;13.85;;
29196;SDS011;62796;42.654;23.316;2023-03-31T18:21:36;38.60;;;13.48;;
29196;SDS011;62796;42.654;23.316;2023-03-31T18:24:01;42.53;;;17.70;;